sensor_id;sensor_type;location;lat;lon;timestamp;P1;durP1;ratioP1;P2;durP2;ratioP2
4290;SDS011;2159;50.906;7.152;2023-06-10T00:01:44;12.20;;;7.87;;
4290;SDS011;2159;50.906;7.152;2023-06-10T00:04:13;8.20;;;7.50;;
4290;SDS011;2159;50.906;7.152;2023-06-10T00:06:41;10.07;;;7.40;;
4290;SDS011;2159;50.906;7.152;2023-06-10T00:09:09;9.20;;;8.27;;
4290;SDS011;2159;50.906;7.152;2023-06-10T00:11:38;8.57;;;7.73;;
4290;SDS011;2159;50.906;7.152;2023-06-10T00:14:06;9.23;;;7.63;;
4290;SDS011;2159;50.906;7.152;2023-06-10T00:16:34;9.30;;;7.67;;
4290;SDS011;2159;50.906;7.152;2023-06-10T00:19:02;9.00;;;7.90;;
4290;SDS011;2159;50.906;7.152;2023-06-10T00:21:32;7.90;;;7.10;;
4290;SDS011;2159;50.906;7.152;2023-06-10T00:24:04;7.90;;;7.10;;
4290;SDS011;2159;50.906;7.152;2023-06-10T00:26:31;8.83;;;8.00;;
4290;SDS011;2159;50.906;7.152;2023-06-10T00:29:00;13.20;;;8.20;;
4290;SDS011;2159;50.906;7.152;2023-06-10T00:31:28;8.90;;;8.00;;
4290;SDS011;2159;50.906;7.152;2023-06-10T00:33:56;8.90;;;8.00;;
4290;SDS011;2159;50.906;7.152;2023-06-10T00:36:25;8.83;;;7.67;;
4290;SDS011;2159;50.906;7.152;2023-06-10T00:38:52;11.90;;;7.80;;
4290;SDS011;2159;50.906;7.152;2023-06-10T00:41:20;7.77;;;6.97;;
4290;SDS011;2159;50.906;7.152;2023-06-10T00:43:47;7.80;;;7.10;;
4290;SDS011;2159;50.906;7.152;2023-06-10T00:46:16;9.00;;;7.07;;
4290;SDS011;2159;50.906;7.152;2023-06-10T00:48:45;8.63;;;7.87;;
4290;SDS011;2159;50.906;7.152;2023-06-10T00:51:12;9.33;;;7.80;;
4290;SDS011;2159;50.906;7.152;2023-06-10T00:53:40;8.73;;;7.93;;
4290;SDS011;2159;50.906;7.152;2023-06-10T00:56:08;9.27;;;8.33;;
4290;SDS011;2159;50.906;7.152;2023-06-10T00:58:36;9.07;;;8.27;;
4290;SDS011;2159;50.906;7.152;2023-06-10T01:01:03;8.33;;;7.57;;
4290;SDS011;2159;50.906;7.152;2023-06-10T01:03:32;8.77;;;7.97;;
4290;SDS011;2159;50.906;7.152;2023-06-10T01:06:06;8.73;;;7.57;;
4290;SDS011;2159;50.906;7.152;2023-06-10T01:08:41;10.53;;;7.60;;
4290;SDS011;2159;50.906;7.152;2023-06-10T01:11:13;8.77;;;7.87;;
4290;SDS011;2159;50.906;7.152;2023-06-10T01:13:44;8.40;;;7.40;;
4290;SDS011;2159;50.906;7.152;2023-06-10T01:16:12;8.60;;;7.80;;
4290;SDS011;2159;50.906;7.152;2023-06-10T01:18:41;8.40;;;7.60;;
4290;SDS011;2159;50.906;7.152;2023-06-10T01:21:13;9.17;;;8.23;;
4290;SDS011;2159;50.906;7.152;2023-06-10T01:23:41;10.63;;;8.00;;
4290;SDS011;2159;50.906;7.152;2023-06-10T01:26:09;9.73;;;8.80;;
4290;SDS011;2159;50.906;7.152;2023-06-10T01:28:38;10.73;;;8.00;;
4290;SDS011;2159;50.906;7.152;2023-06-10T01:31:08;9.40;;;7.90;;
4290;SDS011;2159;50.906;7.152;2023-06-10T01:33:41;8.73;;;7.80;;
4290;SDS011;2159;50.906;7.152;2023-06-10T01:36:09;8.80;;;7.73;;
4290;SDS011;2159;50.906;7.152;2023-06-10T01:38:40;9.53;;;8.50;;
4290;SDS011;2159;50.906;7.152;2023-06-10T01:41:09;10.10;;;8.00;;
4290;SDS011;2159;50.906;7.152;2023-06-10T01:43:37;8.40;;;7.60;;
4290;SDS011;2159;50.906;7.152;2023-06-10T01:46:05;8.87;;;7.70;;
4290;SDS011;2159;50.906;7.152;2023-06-10T01:48:32;8.43;;;7.40;;
4290;SDS011;2159;50.906;7.152;2023-06-10T01:51:01;8.37;;;7.57;;
4290;SDS011;2159;50.906;7.152;2023-06-10T01:53:28;9.00;;;8.10;;
4290;SDS011;2159;50.906;7.152;2023-06-10T01:55:57;8.43;;;7.63;;
4290;SDS011;2159;50.906;7.152;2023-06-10T01:58:24;10.13;;;8.33;;
4290;SDS011;2159;50.906;7.152;2023-06-10T02:00:52;9.60;;;7.80;;
4290;SDS011;2159;50.906;7.152;2023-06-10T02:03:20;8.77;;;7.97;;
4290;SDS011;2159;50.906;7.152;2023-06-10T02:05:48;11.57;;;8.30;;
4290;SDS011;2159;50.906;7.152;2023-06-10T02:08:15;8.80;;;7.90;;
4290;SDS011;2159;50.906;7.152;2023-06-10T02:10:43;8.20;;;7.50;;
4290;SDS011;2159;50.906;7.152;2023-06-10T02:13:11;9.13;;;8.00;;
4290;SDS011;2159;50.906;7.152;2023-06-10T02:15:39;8.27;;;7.47;;
4290;SDS011;2159;50.906;7.152;2023-06-10T02:18:07;8.13;;;7.33;;
4290;SDS011;2159;50.906;7.152;2023-06-10T02:20:35;8.83;;;7.90;;
4290;SDS011;2159;50.906;7.152;2023-06-10T02:23:02;8.27;;;7.47;;
4290;SDS011;2159;50.906;7.152;2023-06-10T02:25:30;9.53;;;7.53;;
4290;SDS011;2159;50.906;7.152;2023-06-10T02:27:57;8.77;;;7.97;;
4290;SDS011;2159;50.906;7.152;2023-06-10T02:30:26;10.37;;;8.20;;
4290;SDS011;2159;50.906;7.152;2023-06-10T02:32:53;9.87;;;8.00;;
4290;SDS011;2159;50.906;7.152;2023-06-10T02:35:22;10.47;;;7.70;;
4290;SDS011;2159;50.906;7.152;2023-06-10T02:37:50;8.10;;;7.40;;
4290;SDS011;2159;50.906;7.152;2023-06-10T02:40:18;8.93;;;7.90;;
4290;SDS011;2159;50.906;7.152;2023-06-10T02:42:45;9.90;;;8.27;;
4290;SDS011;2159;50.906;7.152;2023-06-10T02:45:13;9.10;;;8.07;;
4290;SDS011;2159;50.906;7.152;2023-06-10T02:47:41;10.50;;;8.53;;
4290;SDS011;2159;50.906;7.152;2023-06-10T02:50:09;10.77;;;8.60;;
4290;SDS011;2159;50.906;7.152;2023-06-10T02:52:36;12.70;;;9.20;;
4290;SDS011;2159;50.906;7.152;2023-06-10T02:55:04;12.20;;;9.10;;
4290;SDS011;2159;50.906;7.152;2023-06-10T02:57:33;10.30;;;9.30;;
4290;SDS011;2159;50.906;7.152;2023-06-10T03:00:00;11.80;;;9.37;;
4290;SDS011;2159;50.906;7.152;2023-06-10T03:02:30;10.37;;;9.33;;
4290;SDS011;2159;50.906;7.152;2023-06-10T03:04:59;10.47;;;9.37;;
4290;SDS011;2159;50.906;7.152;2023-06-10T03:07:26;11.63;;;9.70;;
4290;SDS011;2159;50.906;7.152;2023-06-10T03:09:54;10.33;;;9.23;;
4290;SDS011;2159;50.906;7.152;2023-06-10T03:12:21;10.80;;;9.47;;
4290;SDS011;2159;50.906;7.152;2023-06-10T03:14:49;9.83;;;8.93;;
4290;SDS011;2159;50.906;7.152;2023-06-10T03:17:16;10.30;;;9.40;;
4290;SDS011;2159;50.906;7.152;2023-06-10T03:19:44;11.57;;;10.20;;
4290;SDS011;2159;50.906;7.152;2023-06-10T03:22:13;12.77;;;9.43;;
4290;SDS011;2159;50.906;7.152;2023-06-10T03:24:41;11.00;;;9.50;;
4290;SDS011;2159;50.906;7.152;2023-06-10T03:27:10;14.20;;;9.63;;
4290;SDS011;2159;50.906;7.152;2023-06-10T03:29:37;10.90;;;9.23;;
4290;SDS011;2159;50.906;7.152;2023-06-10T03:32:05;12.23;;;9.00;;
4290;SDS011;2159;50.906;7.152;2023-06-10T03:34:33;12.27;;;10.50;;
4290;SDS011;2159;50.906;7.152;2023-06-10T03:37:01;12.40;;;9.83;;
4290;SDS011;2159;50.906;7.152;2023-06-10T03:39:30;10.90;;;9.40;;
4290;SDS011;2159;50.906;7.152;2023-06-10T03:41:58;10.43;;;9.30;;
4290;SDS011;2159;50.906;7.152;2023-06-10T03:44:25;11.97;;;9.30;;
4290;SDS011;2159;50.906;7.152;2023-06-10T03:46:53;10.80;;;9.80;;
4290;SDS011;2159;50.906;7.152;2023-06-10T03:49:21;10.97;;;9.80;;
4290;SDS011;2159;50.906;7.152;2023-06-10T03:51:53;10.77;;;9.40;;
4290;SDS011;2159;50.906;7.152;2023-06-10T03:54:21;10.40;;;9.30;;
4290;SDS011;2159;50.906;7.152;2023-06-10T03:56:49;11.10;;;9.90;;
4290;SDS011;2159;50.906;7.152;2023-06-10T03:59:17;10.60;;;9.20;;
4290;SDS011;2159;50.906;7.152;2023-06-10T04:01:45;9.90;;;9.00;;
4290;SDS011;2159;50.906;7.152;2023-06-10T04:04:13;15.23;;;9.10;;
4290;SDS011;2159;50.906;7.152;2023-06-10T04:06:42;10.77;;;9.30;;
4290;SDS011;2159;50.906;7.152;2023-06-10T04:09:10;13.67;;;10.03;;
4290;SDS011;2159;50.906;7.152;2023-06-10T04:11:38;10.00;;;9.00;;
4290;SDS011;2159;50.906;7.152;2023-06-10T04:14:07;10.70;;;9.60;;
4290;SDS011;2159;50.906;7.152;2023-06-10T04:16:34;14.43;;;10.00;;
4290;SDS011;2159;50.906;7.152;2023-06-10T04:19:02;12.00;;;9.30;;
4290;SDS011;2159;50.906;7.152;2023-06-10T04:21:30;13.33;;;9.90;;
4290;SDS011;2159;50.906;7.152;2023-06-10T04:23:57;10.40;;;9.40;;
4290;SDS011;2159;50.906;7.152;2023-06-10T04:26:25;10.70;;;9.70;;
4290;SDS011;2159;50.906;7.152;2023-06-10T04:28:53;10.40;;;9.30;;
4290;SDS011;2159;50.906;7.152;2023-06-10T04:31:22;10.10;;;9.20;;
4290;SDS011;2159;50.906;7.152;2023-06-10T04:33:49;10.90;;;9.80;;
4290;SDS011;2159;50.906;7.152;2023-06-10T04:36:17;10.87;;;9.80;;
4290;SDS011;2159;50.906;7.152;2023-06-10T04:38:44;18.00;;;9.07;;
4290;SDS011;2159;50.906;7.152;2023-06-10T04:41:12;10.30;;;9.33;;
4290;SDS011;2159;50.906;7.152;2023-06-10T04:43:39;12.50;;;9.10;;
4290;SDS011;2159;50.906;7.152;2023-06-10T04:46:07;10.23;;;9.07;;
4290;SDS011;2159;50.906;7.152;2023-06-10T04:48:36;11.10;;;9.17;;
4290;SDS011;2159;50.906;7.152;2023-06-10T04:51:03;9.80;;;8.93;;
4290;SDS011;2159;50.906;7.152;2023-06-10T04:53:31;11.30;;;9.97;;
4290;SDS011;2159;50.906;7.152;2023-06-10T04:55:59;9.70;;;8.60;;
4290;SDS011;2159;50.906;7.152;2023-06-10T04:58:26;11.60;;;9.57;;
4290;SDS011;2159;50.906;7.152;2023-06-10T05:00:54;9.77;;;8.97;;
4290;SDS011;2159;50.906;7.152;2023-06-10T05:03:21;13.63;;;9.70;;
4290;SDS011;2159;50.906;7.152;2023-06-10T05:05:50;11.93;;;9.00;;
4290;SDS011;2159;50.906;7.152;2023-06-10T05:08:17;12.83;;;10.07;;
4290;SDS011;2159;50.906;7.152;2023-06-10T05:10:45;9.70;;;8.70;;
4290;SDS011;2159;50.906;7.152;2023-06-10T05:13:12;10.87;;;9.73;;
4290;SDS011;2159;50.906;7.152;2023-06-10T05:15:40;12.20;;;9.40;;
4290;SDS011;2159;50.906;7.152;2023-06-10T05:18:10;10.90;;;9.80;;
4290;SDS011;2159;50.906;7.152;2023-06-10T05:20:38;13.20;;;10.40;;
4290;SDS011;2159;50.906;7.152;2023-06-10T05:23:07;10.63;;;9.63;;
4290;SDS011;2159;50.906;7.152;2023-06-10T05:25:35;11.67;;;10.47;;
4290;SDS011;2159;50.906;7.152;2023-06-10T05:28:02;10.90;;;9.60;;
4290;SDS011;2159;50.906;7.152;2023-06-10T05:30:30;11.13;;;10.10;;
4290;SDS011;2159;50.906;7.152;2023-06-10T05:32:57;13.07;;;9.90;;
4290;SDS011;2159;50.906;7.152;2023-06-10T05:35:24;11.50;;;10.40;;
4290;SDS011;2159;50.906;7.152;2023-06-10T05:37:52;10.87;;;9.87;;
4290;SDS011;2159;50.906;7.152;2023-06-10T05:40:21;10.90;;;9.83;;
4290;SDS011;2159;50.906;7.152;2023-06-10T05:42:49;11.07;;;9.90;;
4290;SDS011;2159;50.906;7.152;2023-06-10T05:45:16;13.43;;;10.37;;
4290;SDS011;2159;50.906;7.152;2023-06-10T05:47:44;13.30;;;10.00;;
4290;SDS011;2159;50.906;7.152;2023-06-10T05:50:11;12.03;;;10.30;;
4290;SDS011;2159;50.906;7.152;2023-06-10T05:52:39;13.40;;;10.60;;
4290;SDS011;2159;50.906;7.152;2023-06-10T05:55:07;11.30;;;10.07;;
4290;SDS011;2159;50.906;7.152;2023-06-10T05:57:36;11.63;;;9.43;;
4290;SDS011;2159;50.906;7.152;2023-06-10T06:00:05;11.20;;;10.10;;
4290;SDS011;2159;50.906;7.152;2023-06-10T06:02:32;11.60;;;10.30;;
4290;SDS011;2159;50.906;7.152;2023-06-10T06:05:00;14.57;;;9.70;;
4290;SDS011;2159;50.906;7.152;2023-06-10T06:07:27;12.70;;;10.67;;
4290;SDS011;2159;50.906;7.152;2023-06-10T06:09:55;11.10;;;10.00;;
4290;SDS011;2159;50.906;7.152;2023-06-10T06:12:22;10.90;;;9.37;;
4290;SDS011;2159;50.906;7.152;2023-06-10T06:14:51;11.57;;;10.37;;
4290;SDS011;2159;50.906;7.152;2023-06-10T06:17:18;12.10;;;10.40;;
4290;SDS011;2159;50.906;7.152;2023-06-10T06:19:46;10.83;;;9.53;;
4290;SDS011;2159;50.906;7.152;2023-06-10T06:22:14;13.47;;;10.00;;
4290;SDS011;2159;50.906;7.152;2023-06-10T06:24:46;10.57;;;9.43;;
4290;SDS011;2159;50.906;7.152;2023-06-10T06:27:13;9.40;;;8.50;;
4290;SDS011;2159;50.906;7.152;2023-06-10T06:29:41;11.03;;;9.10;;
4290;SDS011;2159;50.906;7.152;2023-06-10T06:32:10;10.47;;;8.50;;
4290;SDS011;2159;50.906;7.152;2023-06-10T06:34:38;9.67;;;8.67;;
4290;SDS011;2159;50.906;7.152;2023-06-10T06:37:05;9.00;;;8.20;;
4290;SDS011;2159;50.906;7.152;2023-06-10T06:39:33;9.23;;;7.33;;
4290;SDS011;2159;50.906;7.152;2023-06-10T06:42:00;8.00;;;7.20;;
4290;SDS011;2159;50.906;7.152;2023-06-10T06:44:28;7.80;;;7.00;;
4290;SDS011;2159;50.906;7.152;2023-06-10T06:46:55;7.10;;;6.40;;
4290;SDS011;2159;50.906;7.152;2023-06-10T06:49:24;7.00;;;6.30;;
4290;SDS011;2159;50.906;7.152;2023-06-10T06:51:51;8.30;;;6.87;;
4290;SDS011;2159;50.906;7.152;2023-06-10T06:54:19;7.93;;;6.23;;
4290;SDS011;2159;50.906;7.152;2023-06-10T06:56:46;15.50;;;6.53;;
4290;SDS011;2159;50.906;7.152;2023-06-10T06:59:14;12.50;;;6.43;;
4290;SDS011;2159;50.906;7.152;2023-06-10T07:01:42;8.60;;;6.23;;
4290;SDS011;2159;50.906;7.152;2023-06-10T07:04:10;7.20;;;6.50;;
4290;SDS011;2159;50.906;7.152;2023-06-10T07:06:39;7.90;;;7.10;;
4290;SDS011;2159;50.906;7.152;2023-06-10T07:09:06;8.40;;;6.40;;
4290;SDS011;2159;50.906;7.152;2023-06-10T07:11:34;6.83;;;6.13;;
4290;SDS011;2159;50.906;7.152;2023-06-10T07:14:02;7.87;;;6.37;;
4290;SDS011;2159;50.906;7.152;2023-06-10T07:16:29;10.77;;;6.40;;
4290;SDS011;2159;50.906;7.152;2023-06-10T07:18:57;16.70;;;6.37;;
4290;SDS011;2159;50.906;7.152;2023-06-10T07:21:24;7.63;;;6.30;;
4290;SDS011;2159;50.906;7.152;2023-06-10T07:23:53;7.23;;;6.53;;
4290;SDS011;2159;50.906;7.152;2023-06-10T07:26:21;6.63;;;6.00;;
4290;SDS011;2159;50.906;7.152;2023-06-10T07:28:48;6.87;;;6.17;;
4290;SDS011;2159;50.906;7.152;2023-06-10T07:31:16;7.83;;;6.33;;
4290;SDS011;2159;50.906;7.152;2023-06-10T07:33:44;8.23;;;6.73;;
4290;SDS011;2159;50.906;7.152;2023-06-10T07:36:11;8.67;;;6.67;;
4290;SDS011;2159;50.906;7.152;2023-06-10T07:38:39;8.60;;;6.63;;
4290;SDS011;2159;50.906;7.152;2023-06-10T07:41:09;7.70;;;6.40;;
4290;SDS011;2159;50.906;7.152;2023-06-10T07:43:37;7.43;;;6.30;;
4290;SDS011;2159;50.906;7.152;2023-06-10T07:46:04;10.70;;;6.60;;
4290;SDS011;2159;50.906;7.152;2023-06-10T07:48:32;7.73;;;6.77;;
4290;SDS011;2159;50.906;7.152;2023-06-10T07:51:00;6.83;;;6.13;;
4290;SDS011;2159;50.906;7.152;2023-06-10T07:53:27;6.80;;;6.20;;
4290;SDS011;2159;50.906;7.152;2023-06-10T07:55:55;7.47;;;6.30;;
4290;SDS011;2159;50.906;7.152;2023-06-10T07:58:23;9.57;;;6.43;;
4290;SDS011;2159;50.906;7.152;2023-06-10T08:00:51;11.17;;;6.60;;
4290;SDS011;2159;50.906;7.152;2023-06-10T08:03:18;7.50;;;6.40;;
4290;SDS011;2159;50.906;7.152;2023-06-10T08:05:46;6.90;;;6.20;;
4290;SDS011;2159;50.906;7.152;2023-06-10T08:08:14;9.03;;;6.30;;
4290;SDS011;2159;50.906;7.152;2023-06-10T08:10:41;8.37;;;6.63;;
4290;SDS011;2159;50.906;7.152;2023-06-10T08:13:09;8.77;;;6.40;;
4290;SDS011;2159;50.906;7.152;2023-06-10T08:15:38;9.20;;;7.10;;
4290;SDS011;2159;50.906;7.152;2023-06-10T08:18:05;12.10;;;6.97;;
4290;SDS011;2159;50.906;7.152;2023-06-10T08:20:32;7.50;;;6.80;;
4290;SDS011;2159;50.906;7.152;2023-06-10T08:23:00;8.40;;;6.73;;
4290;SDS011;2159;50.906;7.152;2023-06-10T08:25:27;11.93;;;7.53;;
4290;SDS011;2159;50.906;7.152;2023-06-10T08:27:55;7.60;;;6.90;;
4290;SDS011;2159;50.906;7.152;2023-06-10T08:30:23;7.20;;;6.60;;
4290;SDS011;2159;50.906;7.152;2023-06-10T08:32:52;8.50;;;6.60;;
4290;SDS011;2159;50.906;7.152;2023-06-10T08:35:20;7.70;;;7.00;;
4290;SDS011;2159;50.906;7.152;2023-06-10T08:37:47;7.50;;;6.80;;
4290;SDS011;2159;50.906;7.152;2023-06-10T08:40:15;7.40;;;6.70;;
4290;SDS011;2159;50.906;7.152;2023-06-10T08:42:43;7.67;;;6.97;;
4290;SDS011;2159;50.906;7.152;2023-06-10T08:45:15;7.90;;;7.20;;
4290;SDS011;2159;50.906;7.152;2023-06-10T08:47:44;8.77;;;6.73;;
4290;SDS011;2159;50.906;7.152;2023-06-10T08:50:13;9.40;;;7.03;;
4290;SDS011;2159;50.906;7.152;2023-06-10T08:52:44;8.60;;;6.83;;
4290;SDS011;2159;50.906;7.152;2023-06-10T08:55:12;7.47;;;6.77;;
4290;SDS011;2159;50.906;7.152;2023-06-10T08:57:41;7.73;;;7.03;;
4290;SDS011;2159;50.906;7.152;2023-06-10T09:00:11;7.27;;;6.30;;
4290;SDS011;2159;50.906;7.152;2023-06-10T09:02:39;8.47;;;7.00;;
4290;SDS011;2159;50.906;7.152;2023-06-10T09:05:07;10.03;;;7.37;;
4290;SDS011;2159;50.906;7.152;2023-06-10T09:07:36;8.40;;;7.23;;
4290;SDS011;2159;50.906;7.152;2023-06-10T09:10:04;8.83;;;6.77;;
4290;SDS011;2159;50.906;7.152;2023-06-10T09:12:34;11.33;;;7.43;;
4290;SDS011;2159;50.906;7.152;2023-06-10T09:15:02;7.73;;;7.00;;
4290;SDS011;2159;50.906;7.152;2023-06-10T09:17:29;7.90;;;7.20;;
4290;SDS011;2159;50.906;7.152;2023-06-10T09:19:57;7.90;;;7.20;;
4290;SDS011;2159;50.906;7.152;2023-06-10T09:22:24;9.27;;;7.30;;
4290;SDS011;2159;50.906;7.152;2023-06-10T09:25:02;6.67;;;6.07;;
4290;SDS011;2159;50.906;7.152;2023-06-10T09:27:31;8.37;;;7.27;;
4290;SDS011;2159;50.906;7.152;2023-06-10T09:29:59;9.30;;;6.80;;
4290;SDS011;2159;50.906;7.152;2023-06-10T09:32:26;9.10;;;7.20;;
4290;SDS011;2159;50.906;7.152;2023-06-10T09:34:54;8.10;;;6.73;;
4290;SDS011;2159;50.906;7.152;2023-06-10T09:37:21;8.47;;;7.20;;
4290;SDS011;2159;50.906;7.152;2023-06-10T09:40:04;7.17;;;6.47;;
4290;SDS011;2159;50.906;7.152;2023-06-10T09:42:32;7.30;;;6.43;;
4290;SDS011;2159;50.906;7.152;2023-06-10T09:45:00;8.40;;;7.47;;
4290;SDS011;2159;50.906;7.152;2023-06-10T09:47:28;9.13;;;7.00;;
4290;SDS011;2159;50.906;7.152;2023-06-10T09:49:55;11.40;;;7.50;;
4290;SDS011;2159;50.906;7.152;2023-06-10T09:52:23;6.90;;;6.30;;
4290;SDS011;2159;50.906;7.152;2023-06-10T09:54:51;7.93;;;6.70;;
4290;SDS011;2159;50.906;7.152;2023-06-10T09:57:21;7.50;;;6.27;;
4290;SDS011;2159;50.906;7.152;2023-06-10T09:59:51;9.70;;;7.00;;
4290;SDS011;2159;50.906;7.152;2023-06-10T10:02:19;7.53;;;6.80;;
4290;SDS011;2159;50.906;7.152;2023-06-10T10:04:47;7.40;;;6.70;;
4290;SDS011;2159;50.906;7.152;2023-06-10T10:07:15;7.27;;;6.50;;
4290;SDS011;2159;50.906;7.152;2023-06-10T10:09:42;7.50;;;6.70;;
4290;SDS011;2159;50.906;7.152;2023-06-10T10:12:10;7.40;;;6.70;;
4290;SDS011;2159;50.906;7.152;2023-06-10T10:14:39;7.37;;;6.73;;
4290;SDS011;2159;50.906;7.152;2023-06-10T10:17:09;7.43;;;6.70;;
4290;SDS011;2159;50.906;7.152;2023-06-10T10:19:40;7.60;;;6.90;;
4290;SDS011;2159;50.906;7.152;2023-06-10T10:22:13;8.07;;;6.90;;
4290;SDS011;2159;50.906;7.152;2023-06-10T10:24:45;7.47;;;6.77;;
4290;SDS011;2159;50.906;7.152;2023-06-10T10:27:15;9.17;;;6.73;;
4290;SDS011;2159;50.906;7.152;2023-06-10T10:29:50;7.37;;;6.43;;
4290;SDS011;2159;50.906;7.152;2023-06-10T10:32:28;7.43;;;6.83;;
4290;SDS011;2159;50.906;7.152;2023-06-10T10:34:58;7.50;;;6.80;;
4290;SDS011;2159;50.906;7.152;2023-06-10T10:37:28;7.47;;;6.67;;
4290;SDS011;2159;50.906;7.152;2023-06-10T10:39:56;8.07;;;6.70;;
4290;SDS011;2159;50.906;7.152;2023-06-10T10:42:25;6.73;;;6.03;;
4290;SDS011;2159;50.906;7.152;2023-06-10T10:44:54;7.47;;;6.70;;
4290;SDS011;2159;50.906;7.152;2023-06-10T10:47:22;7.37;;;6.67;;
4290;SDS011;2159;50.906;7.152;2023-06-10T10:49:51;6.73;;;6.03;;
4290;SDS011;2159;50.906;7.152;2023-06-10T10:52:19;6.80;;;6.10;;
4290;SDS011;2159;50.906;7.152;2023-06-10T10:54:47;8.00;;;6.43;;
4290;SDS011;2159;50.906;7.152;2023-06-10T10:57:16;11.97;;;6.47;;
4290;SDS011;2159;50.906;7.152;2023-06-10T10:59:44;6.93;;;6.33;;
4290;SDS011;2159;50.906;7.152;2023-06-10T11:02:16;7.13;;;6.40;;
4290;SDS011;2159;50.906;7.152;2023-06-10T11:04:46;9.73;;;6.50;;
4290;SDS011;2159;50.906;7.152;2023-06-10T11:07:14;8.23;;;6.50;;
4290;SDS011;2159;50.906;7.152;2023-06-10T11:09:57;7.37;;;6.67;;
4290;SDS011;2159;50.906;7.152;2023-06-10T11:12:25;10.50;;;6.60;;
4290;SDS011;2159;50.906;7.152;2023-06-10T11:14:55;6.90;;;6.30;;
4290;SDS011;2159;50.906;7.152;2023-06-10T11:17:24;6.60;;;5.93;;
4290;SDS011;2159;50.906;7.152;2023-06-10T11:19:51;6.80;;;5.90;;
4290;SDS011;2159;50.906;7.152;2023-06-10T11:22:19;6.57;;;6.00;;
4290;SDS011;2159;50.906;7.152;2023-06-10T11:24:47;8.70;;;6.10;;
4290;SDS011;2159;50.906;7.152;2023-06-10T11:27:15;6.37;;;5.80;;
4290;SDS011;2159;50.906;7.152;2023-06-10T11:29:56;6.17;;;5.10;;
4290;SDS011;2159;50.906;7.152;2023-06-10T11:32:25;6.87;;;6.20;;
4290;SDS011;2159;50.906;7.152;2023-06-10T11:34:56;6.20;;;5.57;;
4290;SDS011;2159;50.906;7.152;2023-06-10T11:37:24;6.03;;;5.53;;
4290;SDS011;2159;50.906;7.152;2023-06-10T11:39:52;7.97;;;5.80;;
4290;SDS011;2159;50.906;7.152;2023-06-10T11:42:19;7.10;;;6.07;;
4290;SDS011;2159;50.906;7.152;2023-06-10T11:44:48;10.00;;;6.33;;
4290;SDS011;2159;50.906;7.152;2023-06-10T11:47:15;6.60;;;6.10;;
4290;SDS011;2159;50.906;7.152;2023-06-10T11:49:44;7.57;;;5.63;;
4290;SDS011;2159;50.906;7.152;2023-06-10T11:52:17;6.37;;;5.70;;
4290;SDS011;2159;50.906;7.152;2023-06-10T11:54:46;6.80;;;6.10;;
4290;SDS011;2159;50.906;7.152;2023-06-10T11:57:20;10.40;;;6.00;;
4290;SDS011;2159;50.906;7.152;2023-06-10T11:59:47;6.43;;;5.93;;
4290;SDS011;2159;50.906;7.152;2023-06-10T12:02:15;6.93;;;5.90;;
4290;SDS011;2159;50.906;7.152;2023-06-10T12:04:44;6.60;;;6.00;;
4290;SDS011;2159;50.906;7.152;2023-06-10T12:07:16;6.77;;;6.03;;
4290;SDS011;2159;50.906;7.152;2023-06-10T12:09:44;6.40;;;5.80;;
4290;SDS011;2159;50.906;7.152;2023-06-10T12:12:12;6.90;;;5.87;;
4290;SDS011;2159;50.906;7.152;2023-06-10T12:14:52;8.83;;;5.90;;
4290;SDS011;2159;50.906;7.152;2023-06-10T12:17:22;6.00;;;5.50;;
4290;SDS011;2159;50.906;7.152;2023-06-10T12:19:51;6.30;;;5.10;;
4290;SDS011;2159;50.906;7.152;2023-06-10T12:22:19;9.40;;;5.67;;
4290;SDS011;2159;50.906;7.152;2023-06-10T12:24:57;5.77;;;5.27;;
4290;SDS011;2159;50.906;7.152;2023-06-10T12:27:26;6.83;;;5.80;;
4290;SDS011;2159;50.906;7.152;2023-06-10T12:29:56;8.13;;;5.33;;
4290;SDS011;2159;50.906;7.152;2023-06-10T12:32:34;5.70;;;5.30;;
4290;SDS011;2159;50.906;7.152;2023-06-10T12:35:04;7.43;;;5.63;;
4290;SDS011;2159;50.906;7.152;2023-06-10T12:37:32;6.33;;;5.70;;
4290;SDS011;2159;50.906;7.152;2023-06-10T12:40:00;5.93;;;5.43;;
4290;SDS011;2159;50.906;7.152;2023-06-10T12:42:29;5.23;;;4.83;;
4290;SDS011;2159;50.906;7.152;2023-06-10T12:45:00;7.10;;;5.60;;
4290;SDS011;2159;50.906;7.152;2023-06-10T12:47:30;6.23;;;5.20;;
4290;SDS011;2159;50.906;7.152;2023-06-10T12:50:01;11.07;;;5.10;;
4290;SDS011;2159;50.906;7.152;2023-06-10T12:52:32;7.27;;;5.00;;
4290;SDS011;2159;50.906;7.152;2023-06-10T12:54:59;6.30;;;5.70;;
4290;SDS011;2159;50.906;7.152;2023-06-10T12:57:27;6.00;;;5.47;;
4290;SDS011;2159;50.906;7.152;2023-06-10T12:59:55;7.90;;;5.40;;
4290;SDS011;2159;50.906;7.152;2023-06-10T13:02:29;5.80;;;5.30;;
4290;SDS011;2159;50.906;7.152;2023-06-10T13:04:57;5.90;;;5.40;;
4290;SDS011;2159;50.906;7.152;2023-06-10T13:07:25;5.80;;;5.23;;
4290;SDS011;2159;50.906;7.152;2023-06-10T13:09:54;5.67;;;5.17;;
4290;SDS011;2159;50.906;7.152;2023-06-10T13:12:23;6.10;;;5.50;;
4290;SDS011;2159;50.906;7.152;2023-06-10T13:15:12;5.80;;;5.30;;
4290;SDS011;2159;50.906;7.152;2023-06-10T13:17:41;5.87;;;5.37;;
4290;SDS011;2159;50.906;7.152;2023-06-10T13:20:09;7.40;;;5.70;;
4290;SDS011;2159;50.906;7.152;2023-06-10T13:22:37;8.60;;;5.50;;
4290;SDS011;2159;50.906;7.152;2023-06-10T13:25:06;6.50;;;5.10;;
4290;SDS011;2159;50.906;7.152;2023-06-10T13:27:34;5.80;;;5.30;;
4290;SDS011;2159;50.906;7.152;2023-06-10T13:30:04;5.20;;;4.70;;
4290;SDS011;2159;50.906;7.152;2023-06-10T13:32:32;6.30;;;4.80;;
4290;SDS011;2159;50.906;7.152;2023-06-10T13:34:59;5.77;;;5.23;;
4290;SDS011;2159;50.906;7.152;2023-06-10T13:37:30;18.93;;;5.30;;
4290;SDS011;2159;50.906;7.152;2023-06-10T13:39:59;5.80;;;5.30;;
4290;SDS011;2159;50.906;7.152;2023-06-10T13:42:28;9.63;;;5.10;;
4290;SDS011;2159;50.906;7.152;2023-06-10T13:44:56;8.30;;;5.10;;
4290;SDS011;2159;50.906;7.152;2023-06-10T13:47:24;5.43;;;4.83;;
4290;SDS011;2159;50.906;7.152;2023-06-10T13:49:51;5.50;;;4.97;;
4290;SDS011;2159;50.906;7.152;2023-06-10T13:52:19;8.30;;;4.90;;
4290;SDS011;2159;50.906;7.152;2023-06-10T13:54:46;5.07;;;4.67;;
4290;SDS011;2159;50.906;7.152;2023-06-10T13:57:14;5.60;;;5.20;;
4290;SDS011;2159;50.906;7.152;2023-06-10T13:59:43;6.80;;;4.90;;
4290;SDS011;2159;50.906;7.152;2023-06-10T14:02:11;6.63;;;4.90;;
4290;SDS011;2159;50.906;7.152;2023-06-10T14:04:38;7.30;;;4.87;;
4290;SDS011;2159;50.906;7.152;2023-06-10T14:07:06;5.17;;;4.77;;
4290;SDS011;2159;50.906;7.152;2023-06-10T14:09:33;5.20;;;4.80;;
4290;SDS011;2159;50.906;7.152;2023-06-10T14:12:01;7.80;;;5.47;;
4290;SDS011;2159;50.906;7.152;2023-06-10T14:14:29;5.60;;;5.20;;
4290;SDS011;2159;50.906;7.152;2023-06-10T14:16:59;7.17;;;4.70;;
4290;SDS011;2159;50.906;7.152;2023-06-10T14:19:26;6.30;;;5.37;;
4290;SDS011;2159;50.906;7.152;2023-06-10T14:21:56;7.97;;;5.50;;
4290;SDS011;2159;50.906;7.152;2023-06-10T14:24:23;7.10;;;5.00;;
4290;SDS011;2159;50.906;7.152;2023-06-10T14:26:51;5.47;;;4.90;;
4290;SDS011;2159;50.906;7.152;2023-06-10T14:29:18;6.93;;;5.00;;
4290;SDS011;2159;50.906;7.152;2023-06-10T14:31:46;6.43;;;4.90;;
4290;SDS011;2159;50.906;7.152;2023-06-10T14:34:15;7.57;;;5.47;;
4290;SDS011;2159;50.906;7.152;2023-06-10T14:36:43;5.73;;;5.00;;
4290;SDS011;2159;50.906;7.152;2023-06-10T14:39:10;6.27;;;5.13;;
4290;SDS011;2159;50.906;7.152;2023-06-10T14:41:38;5.23;;;4.83;;
4290;SDS011;2159;50.906;7.152;2023-06-10T14:44:05;5.30;;;4.90;;
4290;SDS011;2159;50.906;7.152;2023-06-10T14:46:33;5.87;;;4.90;;
4290;SDS011;2159;50.906;7.152;2023-06-10T14:49:00;5.00;;;4.60;;
4290;SDS011;2159;50.906;7.152;2023-06-10T14:51:30;12.90;;;5.00;;
4290;SDS011;2159;50.906;7.152;2023-06-10T14:54:01;5.83;;;5.10;;
4290;SDS011;2159;50.906;7.152;2023-06-10T14:56:29;5.07;;;4.67;;
4290;SDS011;2159;50.906;7.152;2023-06-10T14:58:56;5.50;;;5.00;;
4290;SDS011;2159;50.906;7.152;2023-06-10T15:01:24;4.63;;;4.23;;
4290;SDS011;2159;50.906;7.152;2023-06-10T15:03:51;6.37;;;5.07;;
4290;SDS011;2159;50.906;7.152;2023-06-10T15:06:19;5.80;;;5.17;;
4290;SDS011;2159;50.906;7.152;2023-06-10T15:08:48;6.90;;;5.00;;
4290;SDS011;2159;50.906;7.152;2023-06-10T15:11:16;10.73;;;4.80;;
4290;SDS011;2159;50.906;7.152;2023-06-10T15:13:43;6.40;;;4.83;;
4290;SDS011;2159;50.906;7.152;2023-06-10T15:16:11;5.23;;;4.73;;
4290;SDS011;2159;50.906;7.152;2023-06-10T15:18:38;5.30;;;4.80;;